sensor_id;sensor_type;location;lat;lon;timestamp;pressure;altitude;pressure_sealevel;temperature;humidity
35694;BME280;21812;55.536;37.664;2023-03-21T00:00:58;99412.94;;;5.87;49.50
35694;BME280;21812;55.536;37.664;2023-03-21T00:03:24;99429.19;;;5.60;50.08
35694;BME280;21812;55.536;37.664;2023-03-21T00:05:51;99432.19;;;5.73;50.58
35694;BME280;21812;55.536;37.664;2023-03-21T00:08:19;99423.06;;;5.76;50.44
35694;BME280;21812;55.536;37.664;2023-03-21T00:10:45;99427.53;;;5.59;50.25
35694;BME280;21812;55.536;37.664;2023-03-21T00:13:12;99428.34;;;5.43;50.70
35694;BME280;21812;55.536;37.664;2023-03-21T00:15:38;99429.84;;;5.37;50.81
35694;BME280;21812;55.536;37.664;2023-03-21T00:18:17;99431.81;;;5.35;50.93
35694;BME280;21812;55.536;37.664;2023-03-21T00:20:57;99391.56;;;5.23;51.09
35694;BME280;21812;55.536;37.664;2023-03-21T00:23:25;99426.88;;;5.65;51.29
35694;BME280;21812;55.536;37.664;2023-03-21T00:25:51;99418.25;;;5.79;50.08
35694;BME280;21812;55.536;37.664;2023-03-21T00:28:17;99422.88;;;5.69;50.24
35694;BME280;21812;55.536;37.664;2023-03-21T00:30:42;99419.25;;;5.70;50.41
35694;BME280;21812;55.536;37.664;2023-03-21T00:33:08;99418.25;;;5.71;50.66
35694;BME280;21812;55.536;37.664;2023-03-21T00:35:33;99413.78;;;5.80;50.19
35694;BME280;21812;55.536;37.664;2023-03-21T00:37:59;99411.31;;;5.86;53.77
35694;BME280;21812;55.536;37.664;2023-03-21T00:40:25;99410.50;;;5.70;50.73
35694;BME280;21812;55.536;37.664;2023-03-21T00:42:51;99402.38;;;5.55;50.97
35694;BME280;21812;55.536;37.664;2023-03-21T00:45:16;99404.69;;;5.41;51.08
35694;BME280;21812;55.536;37.664;2023-03-21T00:47:43;99399.19;;;5.35;51.47
35694;BME280;21812;55.536;37.664;2023-03-21T00:50:10;99377.53;;;5.23;51.40
35694;BME280;21812;55.536;37.664;2023-03-21T00:52:36;99392.44;;;5.48;51.67
35694;BME280;21812;55.536;37.664;2023-03-21T00:55:04;99401.03;;;5.59;51.07
35694;BME280;21812;55.536;37.664;2023-03-21T00:57:30;99398.88;;;5.71;50.77
35694;BME280;21812;55.536;37.664;2023-03-21T00:59:56;99398.88;;;5.87;50.72
35694;BME280;21812;55.536;37.664;2023-03-21T01:02:24;99378.84;;;6.01;50.72
35694;BME280;21812;55.536;37.664;2023-03-21T01:04:52;99391.91;;;6.58;52.23
35694;BME280;21812;55.536;37.664;2023-03-21T01:07:18;99379.34;;;7.15;49.03
35694;BME280;21812;55.536;37.664;2023-03-21T01:09:44;99384.38;;;7.71;50.81
35694;BME280;21812;55.536;37.664;2023-03-21T01:12:10;99367.50;;;7.49;47.11
35694;BME280;21812;55.536;37.664;2023-03-21T01:14:36;99373.59;;;7.72;47.05
35694;BME280;21812;55.536;37.664;2023-03-21T01:17:02;99366.78;;;8.08;47.44
35694;BME280;21812;55.536;37.664;2023-03-21T01:19:27;99360.63;;;8.37;45.92
35694;BME280;21812;55.536;37.664;2023-03-21T01:21:54;99360.66;;;8.88;47.51
35694;BME280;21812;55.536;37.664;2023-03-21T01:24:20;99355.75;;;9.07;45.52
35694;BME280;21812;55.536;37.664;2023-03-21T01:26:46;99341.91;;;8.96;44.78
35694;BME280;21812;55.536;37.664;2023-03-21T01:29:12;99348.78;;;8.39;44.54
35694;BME280;21812;55.536;37.664;2023-03-21T01:31:38;99350.25;;;8.12;45.49
35694;BME280;21812;55.536;37.664;2023-03-21T01:34:05;99347.94;;;7.79;45.69
35694;BME280;21812;55.536;37.664;2023-03-21T01:36:31;99354.09;;;7.95;47.94
35694;BME280;21812;55.536;37.664;2023-03-21T01:39:02;99343.75;;;8.45;49.47
35694;BME280;21812;55.536;37.664;2023-03-21T01:41:38;99351.47;;;8.91;46.79
35694;BME280;21812;55.536;37.664;2023-03-21T01:44:08;99349.06;;;8.59;45.53
35694;BME280;21812;55.536;37.664;2023-03-21T01:46:44;99287.63;;;7.95;44.65
35694;BME280;21812;55.536;37.664;2023-03-21T01:49:34;99353.31;;;8.09;46.00
35694;BME280;21812;55.536;37.664;2023-03-21T01:52:24;99357.94;;;7.39;47.85
35694;BME280;21812;55.536;37.664;2023-03-21T01:54:54;99353.34;;;7.33;49.16
35694;BME280;21812;55.536;37.664;2023-03-21T01:57:27;99350.25;;;7.97;50.70
35694;BME280;21812;55.536;37.664;2023-03-21T01:59:58;99310.88;;;8.67;49.12
35694;BME280;21812;55.536;37.664;2023-03-21T02:02:30;99330.28;;;9.04;46.73
35694;BME280;21812;55.536;37.664;2023-03-21T02:05:23;99339.44;;;9.59;46.13
35694;BME280;21812;55.536;37.664;2023-03-21T02:07:52;99337.63;;;9.67;45.34
35694;BME280;21812;55.536;37.664;2023-03-21T02:10:18;99341.66;;;9.34;43.26
35694;BME280;21812;55.536;37.664;2023-03-21T02:12:48;99332.56;;;8.49;46.35
35694;BME280;21812;55.536;37.664;2023-03-21T02:15:15;99334.84;;;8.52;47.81
35694;BME280;21812;55.536;37.664;2023-03-21T02:18:45;99331.44;;;8.58;47.58
35694;BME280;21812;55.536;37.664;2023-03-21T02:22:04;99320.72;;;9.10;43.63
35694;BME280;21812;55.536;37.664;2023-03-21T02:27:55;99315.84;;;9.91;43.71
35694;BME280;21812;55.536;37.664;2023-03-21T02:44:18;99309.38;;;10.07;45.29
35694;BME280;21812;55.536;37.664;2023-03-21T02:49:24;99292.91;;;9.97;42.25
35694;BME280;21812;55.536;37.664;2023-03-21T02:51:56;99266.06;;;9.70;43.07
35694;BME280;21812;55.536;37.664;2023-03-21T02:54:24;99297.53;;;9.82;43.92
35694;BME280;21812;55.536;37.664;2023-03-21T02:56:52;99265.97;;;9.00;45.69
35694;BME280;21812;55.536;37.664;2023-03-21T03:03:08;99290.28;;;9.19;45.80
35694;BME280;21812;55.536;37.664;2023-03-21T03:05:55;99275.28;;;9.39;45.70
35694;BME280;21812;55.536;37.664;2023-03-21T03:16:51;99283.06;;;10.39;42.17
35694;BME280;21812;55.536;37.664;2023-03-21T03:19:31;99254.13;;;10.43;43.91
35694;BME280;21812;55.536;37.664;2023-03-21T03:22:09;99279.97;;;9.94;42.17
35694;BME280;21812;55.536;37.664;2023-03-21T03:27:23;99299.47;;;9.94;44.26
35694;BME280;21812;55.536;37.664;2023-03-21T03:29:51;99285.91;;;9.61;43.63
35694;BME280;21812;55.536;37.664;2023-03-21T03:32:28;99292.81;;;9.55;44.99
35694;BME280;21812;55.536;37.664;2023-03-21T03:34:56;99285.34;;;9.44;44.59
35694;BME280;21812;55.536;37.664;2023-03-21T03:37:32;99263.41;;;8.92;43.56
35694;BME280;21812;55.536;37.664;2023-03-21T03:40:06;99289.41;;;8.69;44.11
35694;BME280;21812;55.536;37.664;2023-03-21T03:42:45;99290.00;;;8.34;44.72
35694;BME280;21812;55.536;37.664;2023-03-21T03:45:27;99279.84;;;7.63;45.96
35694;BME280;21812;55.536;37.664;2023-03-21T03:48:05;99251.44;;;7.11;46.73
35694;BME280;21812;55.536;37.664;2023-03-21T03:50:38;99297.44;;;7.03;47.56
35694;BME280;21812;55.536;37.664;2023-03-21T03:55:58;99243.59;;;6.17;49.08
35694;BME280;21812;55.536;37.664;2023-03-21T03:58:25;99284.66;;;6.21;49.67
35694;BME280;21812;55.536;37.664;2023-03-21T04:00:54;99276.13;;;6.03;49.98
35694;BME280;21812;55.536;37.664;2023-03-21T04:03:21;99279.09;;;5.92;50.63
35694;BME280;21812;55.536;37.664;2023-03-21T04:05:47;99279.47;;;5.88;51.08
35694;BME280;21812;55.536;37.664;2023-03-21T04:08:14;99264.59;;;5.79;51.07
35694;BME280;21812;55.536;37.664;2023-03-21T04:10:43;99273.69;;;5.85;50.91
35694;BME280;21812;55.536;37.664;2023-03-21T04:13:09;99277.84;;;5.71;51.80
35694;BME280;21812;55.536;37.664;2023-03-21T04:15:44;99246.31;;;5.28;52.24
35694;BME280;21812;55.536;37.664;2023-03-21T04:18:14;99279.41;;;5.41;52.88
35694;BME280;21812;55.536;37.664;2023-03-21T04:20:39;99279.41;;;5.33;53.39
35694;BME280;21812;55.536;37.664;2023-03-21T04:23:06;99277.09;;;5.38;53.49
35694;BME280;21812;55.536;37.664;2023-03-21T04:25:36;99273.91;;;5.42;53.67
35694;BME280;21812;55.536;37.664;2023-03-21T04:28:03;99282.53;;;5.44;53.38
35694;BME280;21812;55.536;37.664;2023-03-21T04:30:58;99281.53;;;5.45;52.80
35694;BME280;21812;55.536;37.664;2023-03-21T04:33:24;99273.28;;;5.48;52.61
35694;BME280;21812;55.536;37.664;2023-03-21T04:35:56;99280.88;;;5.43;53.24
35694;BME280;21812;55.536;37.664;2023-03-21T04:38:25;99274.94;;;5.25;53.38
35694;BME280;21812;55.536;37.664;2023-03-21T04:40:56;99274.59;;;5.36;52.97
35694;BME280;21812;55.536;37.664;2023-03-21T04:43:22;99273.59;;;5.45;53.00
35694;BME280;21812;55.536;37.664;2023-03-21T04:45:49;99268.31;;;5.45;53.09
35694;BME280;21812;55.536;37.664;2023-03-21T04:48:15;99274.91;;;5.49;52.86
35694;BME280;21812;55.536;37.664;2023-03-21T04:50:45;99265.31;;;5.40;53.45
35694;BME280;21812;55.536;37.664;2023-03-21T04:53:11;99279.38;;;5.49;52.77
35694;BME280;21812;55.536;37.664;2023-03-21T04:55:38;99273.28;;;5.32;52.94
35694;BME280;21812;55.536;37.664;2023-03-21T04:58:04;99286.19;;;5.35;53.01
35694;BME280;21812;55.536;37.664;2023-03-21T05:00:30;99284.53;;;5.34;53.15
35694;BME280;21812;55.536;37.664;2023-03-21T05:02:57;99282.88;;;5.41;52.80
35694;BME280;21812;55.536;37.664;2023-03-21T05:05:25;99281.88;;;5.34;52.94
35694;BME280;21812;55.536;37.664;2023-03-21T05:08:09;99277.25;;;5.28;53.35
35694;BME280;21812;55.536;37.664;2023-03-21T05:10:35;99285.53;;;5.25;53.30
35694;BME280;21812;55.536;37.664;2023-03-21T05:13:01;99279.41;;;5.33;53.05
35694;BME280;21812;55.536;37.664;2023-03-21T05:15:27;99271.63;;;5.31;53.06
35694;BME280;21812;55.536;37.664;2023-03-21T05:17:52;99274.78;;;5.26;53.05
35694;BME280;21812;55.536;37.664;2023-03-21T05:20:18;99271.28;;;5.18;53.50
35694;BME280;21812;55.536;37.664;2023-03-21T05:22:44;99265.03;;;5.19;53.75
35694;BME280;21812;55.536;37.664;2023-03-21T05:25:12;99266.50;;;5.29;53.23
35694;BME280;21812;55.536;37.664;2023-03-21T05:27:58;99269.16;;;5.29;53.24
35694;BME280;21812;55.536;37.664;2023-03-21T05:30:27;99272.47;;;5.32;53.35
35694;BME280;21812;55.536;37.664;2023-03-21T05:32:57;99276.75;;;5.41;52.99
35694;BME280;21812;55.536;37.664;2023-03-21T05:35:23;99275.44;;;5.45;52.88
35694;BME280;21812;55.536;37.664;2023-03-21T05:37:49;99267.63;;;5.52;52.94
35694;BME280;21812;55.536;37.664;2023-03-21T05:40:15;99272.91;;;5.68;52.29
35694;BME280;21812;55.536;37.664;2023-03-21T05:42:43;99267.13;;;5.56;52.00
35694;BME280;21812;55.536;37.664;2023-03-21T05:45:29;99261.31;;;5.61;52.07
35694;BME280;21812;55.536;37.664;2023-03-21T05:47:55;99274.06;;;5.57;52.05
35694;BME280;21812;55.536;37.664;2023-03-21T05:50:25;99270.44;;;5.50;52.38
35694;BME280;21812;55.536;37.664;2023-03-21T05:53:09;99271.56;;;5.72;52.53
35694;BME280;21812;55.536;37.664;2023-03-21T05:55:35;99279.88;;;5.53;52.07
35694;BME280;21812;55.536;37.664;2023-03-21T05:58:03;99272.59;;;5.55;52.55
35694;BME280;21812;55.536;37.664;2023-03-21T06:00:30;99268.28;;;5.62;52.00
35694;BME280;21812;55.536;37.664;2023-03-21T06:03:24;99265.59;;;5.70;51.99
35694;BME280;21812;55.536;37.664;2023-03-21T06:06:06;99264.44;;;5.73;52.09
35694;BME280;21812;55.536;37.664;2023-03-21T06:08:36;99261.63;;;5.58;52.23
35694;BME280;21812;55.536;37.664;2023-03-21T06:11:02;99257.69;;;5.62;51.88
35694;BME280;21812;55.536;37.664;2023-03-21T06:13:30;99264.28;;;5.66;51.83
35694;BME280;21812;55.536;37.664;2023-03-21T06:15:57;99268.25;;;5.70;52.01
35694;BME280;21812;55.536;37.664;2023-03-21T06:18:24;99262.91;;;5.78;51.61
35694;BME280;21812;55.536;37.664;2023-03-21T06:20:59;99260.09;;;5.80;51.56
35694;BME280;21812;55.536;37.664;2023-03-21T06:23:25;99262.06;;;5.86;51.52
35694;BME280;21812;55.536;37.664;2023-03-21T06:25:52;99264.06;;;5.92;51.06
35694;BME280;21812;55.536;37.664;2023-03-21T06:28:18;99260.75;;;5.98;51.22
35694;BME280;21812;55.536;37.664;2023-03-21T06:30:44;99256.25;;;5.99;50.84
35694;BME280;21812;55.536;37.664;2023-03-21T06:33:15;99256.59;;;5.96;51.13
35694;BME280;21812;55.536;37.664;2023-03-21T06:35:42;99257.63;;;5.86;51.46
35694;BME280;21812;55.536;37.664;2023-03-21T06:38:08;99244.75;;;5.67;51.69
35694;BME280;21812;55.536;37.664;2023-03-21T06:40:34;99254.47;;;5.83;51.35
35694;BME280;21812;55.536;37.664;2023-03-21T06:43:00;99251.78;;;5.91;51.34
35694;BME280;21812;55.536;37.664;2023-03-21T06:45:26;99248.16;;;6.00;51.34
35694;BME280;21812;55.536;37.664;2023-03-21T06:47:52;99244.69;;;6.00;51.18
35694;BME280;21812;55.536;37.664;2023-03-21T06:50:40;99239.72;;;5.97;51.28
35694;BME280;21812;55.536;37.664;2023-03-21T06:53:06;99240.19;;;6.00;51.65
35694;BME280;21812;55.536;37.664;2023-03-21T06:55:51;99228.41;;;6.11;51.26
35694;BME280;21812;55.536;37.664;2023-03-21T06:58:19;99231.81;;;6.20;51.15
35694;BME280;21812;55.536;37.664;2023-03-21T07:00:45;99235.75;;;6.24;51.47
35694;BME280;21812;55.536;37.664;2023-03-21T07:03:11;99239.03;;;6.34;51.41
35694;BME280;21812;55.536;37.664;2023-03-21T07:05:38;99227.06;;;6.38;50.89
35694;BME280;21812;55.536;37.664;2023-03-21T07:08:05;99230.00;;;6.43;50.92
35694;BME280;21812;55.536;37.664;2023-03-21T07:10:32;99232.81;;;6.50;50.85
35694;BME280;21812;55.536;37.664;2023-03-21T07:13:04;99224.38;;;6.46;50.77
35694;BME280;21812;55.536;37.664;2023-03-21T07:15:53;99227.84;;;6.47;50.99
35694;BME280;21812;55.536;37.664;2023-03-21T07:18:19;99230.16;;;6.50;51.28
35694;BME280;21812;55.536;37.664;2023-03-21T07:20:47;99190.28;;;6.35;51.13
35694;BME280;21812;55.536;37.664;2023-03-21T07:23:23;99222.34;;;6.57;51.01
35694;BME280;21812;55.536;37.664;2023-03-21T07:25:51;99221.44;;;6.64;50.92
35694;BME280;21812;55.536;37.664;2023-03-21T07:28:19;99219.19;;;6.76;51.24
35694;BME280;21812;55.536;37.664;2023-03-21T07:30:51;99217.84;;;6.80;50.97
35694;BME280;21812;55.536;37.664;2023-03-21T07:33:18;99215.66;;;6.84;51.53
35694;BME280;21812;55.536;37.664;2023-03-21T07:35:44;99213.88;;;6.99;51.05
35694;BME280;21812;55.536;37.664;2023-03-21T07:38:10;99216.09;;;7.11;51.04
35694;BME280;21812;55.536;37.664;2023-03-21T07:40:38;99214.81;;;7.21;50.70
35694;BME280;21812;55.536;37.664;2023-03-21T07:43:03;99211.91;;;7.31;50.36
35694;BME280;21812;55.536;37.664;2023-03-21T07:45:33;99208.91;;;7.49;49.86
35694;BME280;21812;55.536;37.664;2023-03-21T07:47:59;99215.03;;;7.50;49.76
35694;BME280;21812;55.536;37.664;2023-03-21T07:50:25;99203.88;;;7.39;49.51
35694;BME280;21812;55.536;37.664;2023-03-21T07:52:51;99214.84;;;7.36;49.80
35694;BME280;21812;55.536;37.664;2023-03-21T07:55:16;99202.84;;;7.40;49.78
35694;BME280;21812;55.536;37.664;2023-03-21T07:57:42;99202.03;;;7.40;49.84
35694;BME280;21812;55.536;37.664;2023-03-21T08:00:08;99206.81;;;7.44;49.70
35694;BME280;21812;55.536;37.664;2023-03-21T08:02:41;99172.78;;;7.25;49.96
35694;BME280;21812;55.536;37.664;2023-03-21T08:05:07;99194.81;;;7.49;49.91
35694;BME280;21812;55.536;37.664;2023-03-21T08:07:32;99200.38;;;7.39;50.30
35694;BME280;21812;55.536;37.664;2023-03-21T08:09:58;99205.75;;;7.31;50.42
35694;BME280;21812;55.536;37.664;2023-03-21T08:12:24;99203.69;;;7.41;50.30
35694;BME280;21812;55.536;37.664;2023-03-21T08:14:50;99202.94;;;7.47;50.35
35694;BME280;21812;55.536;37.664;2023-03-21T08:17:15;99206.69;;;7.38;50.40
35694;BME280;21812;55.536;37.664;2023-03-21T08:19:41;99196.25;;;7.36;50.94
35694;BME280;21812;55.536;37.664;2023-03-21T08:22:06;99205.13;;;7.43;51.00
35694;BME280;21812;55.536;37.664;2023-03-21T08:24:33;99213.09;;;7.43;51.10
35694;BME280;21812;55.536;37.664;2023-03-21T08:27:00;99156.41;;;7.07;51.32
35694;BME280;21812;55.536;37.664;2023-03-21T08:29:26;99200.56;;;7.37;51.65
35694;BME280;21812;55.536;37.664;2023-03-21T08:31:52;99204.50;;;7.41;51.81
35694;BME280;21812;55.536;37.664;2023-03-21T08:34:18;99196.59;;;7.48;51.80
35694;BME280;21812;55.536;37.664;2023-03-21T08:36:44;99211.66;;;7.56;51.75
35694;BME280;21812;55.536;37.664;2023-03-21T08:39:11;99220.00;;;7.53;52.11
35694;BME280;21812;55.536;37.664;2023-03-21T08:41:37;99205.59;;;7.47;52.28
35694;BME280;21812;55.536;37.664;2023-03-21T08:44:04;99214.84;;;7.36;52.18
35694;BME280;21812;55.536;37.664;2023-03-21T08:46:31;99217.69;;;7.50;52.34
35694;BME280;21812;55.536;37.664;2023-03-21T08:48:57;99201.91;;;7.48;52.34
35694;BME280;21812;55.536;37.664;2023-03-21T08:51:24;99201.66;;;7.43;52.54
35694;BME280;21812;55.536;37.664;2023-03-21T08:53:50;99200.75;;;7.51;52.50
35694;BME280;21812;55.536;37.664;2023-03-21T08:56:16;99195.44;;;7.66;52.47
35694;BME280;21812;55.536;37.664;2023-03-21T08:58:42;99194.41;;;7.81;52.01
35694;BME280;21812;55.536;37.664;2023-03-21T09:01:09;99181.59;;;7.85;51.89
35694;BME280;21812;55.536;37.664;2023-03-21T09:03:36;99195.56;;;7.94;52.02
35694;BME280;21812;55.536;37.664;2023-03-21T09:06:03;99192.44;;;8.05;52.13
35694;BME280;21812;55.536;37.664;2023-03-21T09:08:29;99193.81;;;8.16;52.23
35694;BME280;21812;55.536;37.664;2023-03-21T09:10:55;99202.88;;;8.21;51.78
35694;BME280;21812;55.536;37.664;2023-03-21T09:13:22;99193.34;;;8.12;52.30
35694;BME280;21812;55.536;37.664;2023-03-21T09:15:48;99183.59;;;7.98;53.17
35694;BME280;21812;55.536;37.664;2023-03-21T09:18:14;99194.13;;;7.91;53.21
35694;BME280;21812;55.536;37.664;2023-03-21T09:20:46;99198.34;;;7.86;53.78
35694;BME280;21812;55.536;37.664;2023-03-21T09:23:13;99198.63;;;7.76;54.13
35694;BME280;21812;55.536;37.664;2023-03-21T09:25:40;99201.13;;;7.77;54.15
35694;BME280;21812;55.536;37.664;2023-03-21T09:28:05;99201.00;;;7.71;54.33
35694;BME280;21812;55.536;37.664;2023-03-21T09:30:33;99149.47;;;7.35;55.04
35694;BME280;21812;55.536;37.664;2023-03-21T09:33:03;99166.84;;;7.53;55.87
35694;BME280;21812;55.536;37.664;2023-03-21T09:35:31;99209.09;;;7.77;56.38
35694;BME280;21812;55.536;37.664;2023-03-21T09:37:57;99211.09;;;7.75;56.21
35694;BME280;21812;55.536;37.664;2023-03-21T09:45:50;99192.56;;;7.97;56.81
35694;BME280;21812;55.536;37.664;2023-03-21T09:51:12;99160.78;;;8.25;56.38
35694;BME280;21812;55.536;37.664;2023-03-21T09:53:41;99176.22;;;8.36;55.24
35694;BME280;21812;55.536;37.664;2023-03-21T09:56:09;99148.00;;;8.20;55.10
35694;BME280;21812;55.536;37.664;2023-03-21T09:58:48;99179.50;;;8.53;55.32
35694;BME280;21812;55.536;37.664;2023-03-21T10:01:25;99152.00;;;8.46;55.57
35694;BME280;21812;55.536;37.664;2023-03-21T10:04:03;99139.63;;;8.38;55.59
35694;BME280;21812;55.536;37.664;2023-03-21T10:06:30;99168.97;;;8.67;54.56
35694;BME280;21812;55.536;37.664;2023-03-21T10:09:03;99161.16;;;8.87;54.63
35694;BME280;21812;55.536;37.664;2023-03-21T10:11:46;99145.91;;;9.02;53.67
35694;BME280;21812;55.536;37.664;2023-03-21T10:14:18;99145.06;;;9.30;53.43
35694;BME280;21812;55.536;37.664;2023-03-21T10:16:48;99119.69;;;9.34;54.10
35694;BME280;21812;55.536;37.664;2023-03-21T10:19:16;99144.03;;;9.66;51.45
35694;BME280;21812;55.536;37.664;2023-03-21T10:21:45;99112.81;;;9.53;51.08
35694;BME280;21812;55.536;37.664;2023-03-21T10:24:14;99134.44;;;9.78;51.28
35694;BME280;21812;55.536;37.664;2023-03-21T10:26:42;99138.28;;;9.62;51.44
35694;BME280;21812;55.536;37.664;2023-03-21T10:29:11;99128.13;;;9.44;51.64
35694;BME280;21812;55.536;37.664;2023-03-21T10:31:39;99135.50;;;9.42;51.72
35694;BME280;21812;55.536;37.664;2023-03-21T10:34:15;99127.72;;;9.41;51.36
35694;BME280;21812;55.536;37.664;2023-03-21T10:36:41;99129.59;;;9.47;51.29
35694;BME280;21812;55.536;37.664;2023-03-21T10:39:35;99108.47;;;9.52;50.14
35694;BME280;21812;55.536;37.664;2023-03-21T10:42:02;99122.84;;;9.51;50.32
35694;BME280;21812;55.536;37.664;2023-03-21T10:44:30;99083.13;;;9.63;49.83
35694;BME280;21812;55.536;37.664;2023-03-21T10:46:58;99099.00;;;9.91;49.55
35694;BME280;21812;55.536;37.664;2023-03-21T10:49:29;99117.09;;;10.02;48.10
35694;BME280;21812;55.536;37.664;2023-03-21T10:51:57;99102.91;;;9.95;48.13
35694;BME280;21812;55.536;37.664;2023-03-21T10:54:31;99103.06;;;10.55;47.38
35694;BME280;21812;55.536;37.664;2023-03-21T10:59:58;99099.50;;;11.08;44.76
35694;BME280;21812;55.536;37.664;2023-03-21T11:02:29;99094.00;;;10.76;45.22
35694;BME280;21812;55.536;37.664;2023-03-21T11:05:03;99106.31;;;10.37;46.73
35694;BME280;21812;55.536;37.664;2023-03-21T11:07:30;99106.31;;;10.44;46.46
35694;BME280;21812;55.536;37.664;2023-03-21T11:09:59;99085.16;;;10.35;46.03
35694;BME280;21812;55.536;37.664;2023-03-21T11:12:31;99073.41;;;10.10;46.87
35694;BME280;21812;55.536;37.664;2023-03-21T11:17:44;99113.25;;;10.25;47.53
35694;BME280;21812;55.536;37.664;2023-03-21T11:20:17;99096.25;;;10.46;46.53
35694;BME280;21812;55.536;37.664;2023-03-21T11:22:47;99101.19;;;10.69;45.60
35694;BME280;21812;55.536;37.664;2023-03-21T11:25:29;99083.09;;;10.84;45.36
35694;BME280;21812;55.536;37.664;2023-03-21T11:27:56;99105.44;;;11.10;44.29
35694;BME280;21812;55.536;37.664;2023-03-21T11:30:25;99102.13;;;11.21;44.14
35694;BME280;21812;55.536;37.664;2023-03-21T11:33:00;99068.44;;;11.20;44.39
35694;BME280;21812;55.536;37.664;2023-03-21T11:35:36;99087.75;;;12.76;42.35
35694;BME280;21812;55.536;37.664;2023-03-21T11:38:02;99081.16;;;14.74;37.97
35694;BME280;21812;55.536;37.664;2023-03-21T11:40:30;99073.84;;;15.97;35.08
35694;BME280;21812;55.536;37.664;2023-03-21T11:42:58;99049.53;;;16.60;34.14
35694;BME280;21812;55.536;37.664;2023-03-21T11:45:27;99056.25;;;17.52;32.10
35694;BME280;21812;55.536;37.664;2023-03-21T11:47:55;99007.28;;;17.93;32.28
35694;BME280;21812;55.536;37.664;2023-03-21T11:50:32;99042.81;;;19.14;30.35
35694;BME280;21812;55.536;37.664;2023-03-21T11:56:03;99021.78;;;20.72;28.04
35694;BME280;21812;55.536;37.664;2023-03-21T12:06:31;99005.47;;;22.02;25.17
35694;BME280;21812;55.536;37.664;2023-03-21T12:22:12;98995.34;;;22.47;23.57
35694;BME280;21812;55.536;37.664;2023-03-21T12:24:55;98988.88;;;23.20;22.41
35694;BME280;21812;55.536;37.664;2023-03-21T12:31:21;98988.94;;;22.33;22.75
35694;BME280;21812;55.536;37.664;2023-03-21T12:36:35;98971.91;;;19.17;25.72
35694;BME280;21812;55.536;37.664;2023-03-21T12:39:35;99004.25;;;18.86;26.63
35694;BME280;21812;55.536;37.664;2023-03-21T12:45:20;98981.63;;;20.68;24.60
35694;BME280;21812;55.536;37.664;2023-03-21T12:47:52;98942.53;;;21.45;23.61
35694;BME280;21812;55.536;37.664;2023-03-21T12:50:26;98971.53;;;22.34;23.07
35694;BME280;21812;55.536;37.664;2023-03-21T12:52:57;98946.03;;;22.54;22.32
35694;BME280;21812;55.536;37.664;2023-03-21T12:55:31;98961.75;;;23.34;21.24
35694;BME280;21812;55.536;37.664;2023-03-21T12:58:03;98956.13;;;23.26;21.18
35694;BME280;21812;55.536;37.664;2023-03-21T13:00:54;98963.09;;;22.89;21.50
35694;BME280;21812;55.536;37.664;2023-03-21T13:06:03;98950.28;;;21.67;22.52
35694;BME280;21812;55.536;37.664;2023-03-21T13:08:37;98958.34;;;20.31;24.03
35694;BME280;21812;55.536;37.664;2023-03-21T13:11:05;98934.13;;;19.53;24.33
35694;BME280;21812;55.536;37.664;2023-03-21T13:19:21;98960.41;;;20.86;24.39
35694;BME280;21812;55.536;37.664;2023-03-21T13:22:16;98900.56;;;21.66;23.06
35694;BME280;21812;55.536;37.664;2023-03-21T13:24:47;98928.47;;;22.94;20.67
35694;BME280;21812;55.536;37.664;2023-03-21T13:29:53;98926.34;;;23.53;20.26
35694;BME280;21812;55.536;37.664;2023-03-21T13:32:49;98938.38;;;23.28;19.67
35694;BME280;21812;55.536;37.664;2023-03-21T13:35:43;98949.00;;;23.49;19.51
35694;BME280;21812;55.536;37.664;2023-03-21T13:38:15;98932.50;;;23.21;19.56
35694;BME280;21812;55.536;37.664;2023-03-21T13:40:46;98943.72;;;23.38;18.77
35694;BME280;21812;55.536;37.664;2023-03-21T13:43:34;98886.41;;;23.43;18.70
35694;BME280;21812;55.536;37.664;2023-03-21T13:46:12;98937.28;;;23.29;18.74
35694;BME280;21812;55.536;37.664;2023-03-21T13:48:58;98935.31;;;23.54;18.66
35694;BME280;21812;55.536;37.664;2023-03-21T13:54:00;98913.22;;;22.69;19.94
35694;BME280;21812;55.536;37.664;2023-03-21T13:56:26;98941.50;;;22.44;19.86
35694;BME280;21812;55.536;37.664;2023-03-21T13:58:57;98920.81;;;22.14;19.98
35694;BME280;21812;55.536;37.664;2023-03-21T14:09:31;98943.19;;;22.40;19.42
35694;BME280;21812;55.536;37.664;2023-03-21T14:11:59;98908.38;;;22.08;19.22
35694;BME280;21812;55.536;37.664;2023-03-21T14:14:32;98926.13;;;22.00;19.40
35694;BME280;21812;55.536;37.664;2023-03-21T14:16:59;98931.47;;;22.69;19.07
35694;BME280;21812;55.536;37.664;2023-03-21T14:19:30;98920.97;;;21.59;20.01
35694;BME280;21812;55.536;37.664;2023-03-21T14:21:57;98926.97;;;21.01;20.30
35694;BME280;21812;55.536;37.664;2023-03-21T14:24:23;98921.69;;;20.49;20.82
35694;BME280;21812;55.536;37.664;2023-03-21T14:26:51;98926.91;;;19.95;21.59
35694;BME280;21812;55.536;37.664;2023-03-21T14:29:25;98904.34;;;19.32;22.23
35694;BME280;21812;55.536;37.664;2023-03-21T14:31:55;98910.25;;;18.61;22.45
35694;BME280;21812;55.536;37.664;2023-03-21T14:34:22;98945.25;;;18.35;22.48
35694;BME280;21812;55.536;37.664;2023-03-21T14:36:48;98948.78;;;17.49;22.99
35694;BME280;21812;55.536;37.664;2023-03-21T14:39:20;98924.06;;;16.86;24.18
35694;BME280;21812;55.536;37.664;2023-03-21T14:41:49;98944.56;;;16.31;24.61
35694;BME280;21812;55.536;37.664;2023-03-21T14:44:25;98939.78;;;15.99;25.37
35694;BME280;21812;55.536;37.664;2023-03-21T14:46:59;98940.97;;;15.75;26.23
35694;BME280;21812;55.536;37.664;2023-03-21T14:49:28;98941.75;;;15.30;26.39
35694;BME280;21812;55.536;37.664;2023-03-21T14:51:56;98935.19;;;14.97;26.91
35694;BME280;21812;55.536;37.664;2023-03-21T14:54:23;98947.25;;;14.82;27.27
35694;BME280;21812;55.536;37.664;2023-03-21T14:56:56;98928.91;;;14.44;27.80
35694;BME280;21812;55.536;37.664;2023-03-21T14:59:26;98918.75;;;14.11;27.84
35694;BME280;21812;55.536;37.664;2023-03-21T15:01:58;98951.13;;;14.39;27.54